Time;durP1;ratioP1;P1;durP2;ratioP2;P2;SDS_P1;SDS_P2;PMS_P1;PMS_P2;Temp;Humidity;BMP_temperature;BMP_pressure;BME280_temperature;BME280_humidity;BME280_pressure;Samples;Min_cycle;Max_cycle;Signal;HPM_P1;HPM_P2
2021/08/01 00:01:23;;;;;;;15.77;9.23;;;;;;;26.79;100.00;100578.06;4917394;29;20036;-69
2021/08/01 00:04:08;;;;;;;13.48;9.27;;;;;;;26.87;100.00;100582.75;4917892;29;20032;-70
2021/08/01 00:06:54;;;;;;;13.93;9.10;;;;;;;26.52;100.00;100625.25;4917885;29;20047;-69
2021/08/01 00:09:40;;;;;;;16.40;9.30;;;;;;;26.75;100.00;100627.72;4918350;29;20028;-69
2021/08/01 00:12:27;;;;;;;17.20;9.20;;;;;;;26.42;100.00;100602.81;4917295;29;20054;-69
2021/08/01 00:15:13;;;;;;;15.48;8.45;;;;;;;26.87;100.00;100563.94;4917724;29;20031;-69
2021/08/01 00:17:59;;;;;;;15.90;8.23;;;;;;;27.17;100.00;100575.56;4917418;29;20040;-69
2021/08/01 00:20:45;;;;;;;12.27;8.43;;;;;;;27.26;100.00;100566.72;4917878;29;20139;-69
2021/08/01 00:23:31;;;;;;;12.25;8.23;;;;;;;27.12;100.00;100571.56;4917539;29;20445;-70
2021/08/01 00:26:16;;;;;;;11.15;7.88;;;;;;;26.89;100.00;100556.59;4917077;29;20364;-68
2021/08/01 00:29:02;;;;;;;12.30;7.70;;;;;;;27.20;100.00;100543.03;4917725;29;20032;-70
2021/08/01 00:31:48;;;;;;;10.60;7.68;;;;;;;27.32;100.00;100576.06;4917257;29;20032;-69
2021/08/01 00:34:34;;;;;;;9.02;7.20;;;;;;;27.34;100.00;100614.47;4917673;29;20032;-69
2021/08/01 00:37:20;;;;;;;13.70;7.43;;;;;;;27.25;100.00;100588.38;4917479;29;20036;-70
2021/08/01 00:40:06;;;;;;;15.00;8.02;;;;;;;26.96;100.00;100572.06;4917044;29;20020;-69
2021/08/01 00:42:52;;;;;;;10.55;8.55;;;;;;;27.44;100.00;100578.53;4916676;29;20024;-69
2021/08/01 00:45:39;;;;;;;11.93;7.70;;;;;;;27.36;100.00;100604.41;4917364;29;20449;-69
2021/08/01 00:48:26;;;;;;;12.35;7.78;;;;;;;27.14;100.00;100569.59;4916019;29;20040;-69
2021/08/01 00:51:12;;;;;;;13.63;8.15;;;;;;;27.19;100.00;100560.13;4917193;29;20036;-69
2021/08/01 00:54:02;;;;;;;12.75;8.25;;;;;;;27.19;100.00;100560.13;4916964;29;20074;-69
2021/08/01 00:56:49;;;;;;;13.95;7.63;;;;;;;27.39;100.00;100574.53;4915959;29;20060;-70
2021/08/01 00:59:37;;;;;;;13.32;7.85;;;;;;;27.27;100.00;100560.34;4916378;29;20373;-69
2021/08/01 01:02:33;;;;;;;14.50;7.78;;;;;;;27.00;100.00;100570.81;4916716;29;20342;-69
2021/08/01 01:05:29;;;;;;;10.98;7.68;;;;;;;26.90;100.00;100551.09;4916282;29;20562;-69
2021/08/01 01:08:46;;;;;;;12.93;7.55;;;;;;;27.13;100.00;100554.47;4916644;29;20099;-69
2021/08/01 01:11:38;;;;;;;11.20;7.50;;;;;;;27.09;100.00;100564.63;4916174;29;20031;-69
2021/08/01 01:14:29;;;;;;;16.38;7.63;;;;;;;26.82;100.00;100555.44;4916121;29;20064;-69
2021/08/01 01:17:23;;;;;;;13.60;7.82;;;;;;;26.70;100.00;100548.44;4916641;29;20056;-69
2021/08/01 01:20:27;;;;;;;10.82;7.72;;;;;;;26.93;100.00;100541.91;4915800;29;20043;-69
2021/08/01 01:23:42;;;;;;;13.70;7.97;;;;;;;26.91;100.00;100538.50;4916218;29;20549;-69
2021/08/01 01:26:34;;;;;;;12.82;8.13;;;;;;;26.47;100.00;100536.09;4915693;29;20020;-69
2021/08/01 01:29:27;;;;;;;11.75;7.55;;;;;;;26.71;100.00;100544.75;4916312;29;20036;-69
2021/08/01 01:32:24;;;;;;;12.05;7.82;;;;;;;26.84;100.00;100545.41;4915770;29;20028;-69
2021/08/01 01:35:17;;;;;;;11.40;7.93;;;;;;;26.79;100.00;100540.44;4916027;29;20036;-69
2021/08/01 01:38:04;;;;;;;12.77;7.72;;;;;;;27.08;100.00;100541.41;4916671;29;20119;-69
2021/08/01 01:40:53;;;;;;;13.80;8.02;;;;;;;27.04;100.00;100537.28;4915931;29;20530;-69
2021/08/01 01:43:39;;;;;;;15.80;7.80;;;;;;;27.09;100.00;100534.19;4915372;29;20036;-69
2021/08/01 01:46:26;;;;;;;11.48;7.93;;;;;;;27.13;100.00;100539.16;4915714;29;20103;-69
2021/08/01 01:49:13;;;;;;;13.90;7.97;;;;;;;27.25;100.00;100542.63;4914995;29;20381;-69
2021/08/01 01:51:59;;;;;;;13.18;8.10;;;;;;;27.08;100.00;100544.09;4918703;29;20120;-70
2021/08/01 01:54:45;;;;;;;12.15;8.15;;;;;;;27.19;100.00;100548.50;4918459;29;20059;-69
2021/08/01 01:57:31;;;;;;;14.85;8.38;;;;;;;26.39;100.00;100543.94;4879678;29;1156970;-69
2021/08/01 02:00:17;;;;;;;13.18;7.68;;;;;;;26.70;100.00;100543.06;4919783;29;20068;-69
2021/08/01 02:03:04;;;;;;;11.13;7.88;;;;;;;26.90;100.00;100544.84;4920247;29;20349;-69
2021/08/01 02:05:49;;;;;;;10.65;7.60;;;;;;;26.60;100.00;100539.47;4919771;29;20379;-70
2021/08/01 02:09:01;;;;;;;12.30;8.50;;;;;;;26.78;100.00;100540.56;4919772;29;20039;-69
2021/08/01 02:12:02;;;;;;;11.68;8.00;;;;;;;26.76;100.00;100543.38;4920490;29;20424;-69
2021/08/01 02:15:02;;;;;;;11.77;8.32;;;;;;;26.69;100.00;100541.34;4920076;29;20032;-69
2021/08/01 02:17:57;;;;;;;14.05;8.82;;;;;;;26.29;100.00;100533.13;4919527;29;20373;-69
2021/08/01 02:20:45;;;;;;;14.10;8.75;;;;;;;26.07;100.00;100535.94;4919602;29;20469;-69
2021/08/01 02:23:36;;;;;;;14.40;8.23;;;;;;;26.32;100.00;100526.66;4919455;29;20370;-69
2021/08/01 02:26:23;;;;;;;12.65;8.43;;;;;;;25.99;100.00;100533.06;4919348;29;20061;-68
2021/08/01 02:29:10;;;;;;;15.80;8.95;;;;;;;26.25;100.00;100531.72;4919653;29;20028;-69
2021/08/01 02:31:56;;;;;;;15.77;9.18;;;;;;;26.15;100.00;100532.59;4919586;29;20437;-69
2021/08/01 02:34:43;;;;;;;15.60;9.10;;;;;;;26.05;100.00;100542.44;4920320;29;20083;-69
2021/08/01 02:37:29;;;;;;;21.25;9.52;;;;;;;26.36;100.00;100541.56;4918894;29;20032;-69
2021/08/01 02:40:15;;;;;;;14.50;9.25;;;;;;;26.32;100.00;100538.25;4919534;29;20036;-69
2021/08/01 02:43:03;;;;;;;15.73;9.27;;;;;;;26.32;100.00;100545.47;4918837;29;20087;-69
2021/08/01 02:45:52;;;;;;;12.50;9.43;;;;;;;26.23;100.00;100544.41;4919954;29;20054;-68
2021/08/01 02:48:38;;;;;;;15.60;10.27;;;;;;;26.10;100.00;100545.56;4918959;29;20036;-68
2021/08/01 02:51:26;;;;;;;18.70;10.77;;;;;;;26.28;100.00;100546.72;4919878;29;20035;-69
2021/08/01 02:54:13;;;;;;;15.02;10.05;;;;;;;26.54;100.00;100548.03;4919521;29;20365;-69
2021/08/01 02:57:03;;;;;;;16.65;10.45;;;;;;;26.75;100.00;100552.44;4919216;29;20421;-69
2021/08/01 02:59:49;;;;;;;20.80;10.90;;;;;;;26.41;100.00;100561.63;4919709;29;20047;-69
2021/08/01 03:02:38;;;;;;;17.33;10.65;;;;;;;26.22;100.00;100566.88;4918150;29;20459;-68
2021/08/01 03:05:23;;;;;;;16.88;11.50;;;;;;;26.14;100.00;100558.63;4919470;29;20529;-69
2021/08/01 03:08:13;;;;;;;22.73;11.57;;;;;;;26.09;100.00;100560.00;4919046;29;20020;-69
2021/08/01 03:10:59;;;;;;;18.67;11.05;;;;;;;26.18;100.00;100551.16;4920022;29;20040;-70
2021/08/01 03:13:45;;;;;;;20.88;11.68;;;;;;;26.37;100.00;100552.13;4918979;29;20295;-70
2021/08/01 03:16:31;;;;;;;16.85;11.43;;;;;;;26.53;100.00;100559.75;4919125;29;20032;-70
2021/08/01 03:19:17;;;;;;;15.50;11.27;;;;;;;26.86;100.00;100559.56;4919383;29;20059;-70
2021/08/01 03:22:03;;;;;;;18.42;11.20;;;;;;;26.81;100.00;100568.00;4918855;29;20028;-70
2021/08/01 03:24:48;;;;;;;16.42;11.18;;;;;;;26.88;100.00;100568.38;4918882;29;20100;-70
2021/08/01 03:27:34;;;;;;;18.60;11.45;;;;;;;26.83;100.00;100586.72;4919359;29;20099;-70
2021/08/01 03:30:29;;;;;;;18.80;11.02;;;;;;;27.01;100.00;100601.25;4918964;29;20101;-70
2021/08/01 03:33:15;;;;;;;23.27;11.27;;;;;;;27.12;100.00;100611.91;4918523;29;20058;-71
2021/08/01 03:36:00;;;;;;;20.90;11.23;;;;;;;27.15;100.00;100625.09;4918049;29;20028;-71
2021/08/01 03:38:46;;;;;;;22.00;12.07;;;;;;;27.33;100.00;100623.53;4918924;29;20115;-71
2021/08/01 03:41:32;;;;;;;20.73;11.93;;;;;;;27.19;100.00;100615.78;4918754;29;20028;-71
2021/08/01 03:44:18;;;;;;;20.35;11.73;;;;;;;26.41;100.00;100614.53;4918382;29;20043;-70
2021/08/01 03:47:04;;;;;;;20.88;11.70;;;;;;;26.51;100.00;100618.16;4918710;29;20025;-70
2021/08/01 03:49:50;;;;;;;19.42;11.85;;;;;;;26.90;100.00;100620.16;4918400;29;20064;-70
2021/08/01 03:52:36;;;;;;;21.92;11.77;;;;;;;26.81;100.00;100612.88;4918163;29;20031;-71
2021/08/01 03:55:22;;;;;;;19.98;12.18;;;;;;;26.23;100.00;100608.00;4918665;29;20028;-70
2021/08/01 03:58:07;;;;;;;21.35;12.25;;;;;;;26.61;100.00;100605.69;4918380;29;20070;-70
2021/08/01 04:00:53;;;;;;;21.08;12.35;;;;;;;26.79;100.00;100599.56;4917357;29;20028;-70
2021/08/01 04:03:40;;;;;;;19.60;12.02;;;;;;;26.67;100.00;100614.06;4918860;29;20123;-70
2021/08/01 04:06:25;;;;;;;20.10;12.60;;;;;;;26.56;100.00;100610.56;4917803;29;20131;-70
2021/08/01 04:09:11;;;;;;;23.27;12.13;;;;;;;26.46;100.00;100604.25;4918520;29;20038;-70
2021/08/01 04:11:57;;;;;;;22.23;12.35;;;;;;;26.32;100.00;100616.16;4918032;29;20071;-71
2021/08/01 04:14:42;;;;;;;20.40;12.18;;;;;;;26.38;100.00;100618.34;4917716;29;20461;-70
2021/08/01 04:17:29;;;;;;;28.52;12.75;;;;;;;26.98;100.00;100617.66;4917974;29;20369;-70
2021/08/01 04:20:15;;;;;;;26.17;13.50;;;;;;;27.13;100.00;100611.78;4921291;29;20039;-70
2021/08/01 04:23:01;;;;;;;26.70;14.25;;;;;;;26.80;100.00;100630.84;4918636;29;20039;-70
2021/08/01 04:25:46;;;;;;;23.88;13.85;;;;;;;26.90;100.00;100621.03;4917776;29;20032;-71
2021/08/01 04:28:34;;;;;;;21.40;13.55;;;;;;;26.68;100.00;100628.38;4917574;29;20028;-71
2021/08/01 04:31:19;;;;;;;22.73;13.60;;;;;;;26.74;100.00;100625.16;4917540;29;20040;-70
2021/08/01 04:34:05;;;;;;;22.88;13.38;;;;;;;27.04;100.00;100630.56;4917697;29;20036;-70
2021/08/01 04:36:51;;;;;;;19.20;12.75;;;;;;;27.14;100.00;100635.03;4917343;29;20035;-70
2021/08/01 04:39:36;;;;;;;22.92;13.40;;;;;;;26.89;100.00;100645.34;4918241;29;20032;-71
2021/08/01 04:42:23;;;;;;;23.77;13.05;;;;;;;26.91;100.00;100644.22;4917611;29;20067;-71
2021/08/01 04:45:09;;;;;;;30.38;13.55;;;;;;;27.32;100.00;100648.72;4918716;29;20039;-71
2021/08/01 04:47:55;;;;;;;22.48;13.32;;;;;;;27.48;100.00;100648.25;4918087;29;20032;-70
2021/08/01 04:50:40;;;;;;;26.67;13.90;;;;;;;27.43;100.00;100646.81;4917708;29;20035;-70
2021/08/01 04:53:26;;;;;;;22.05;13.45;;;;;;;27.48;100.00;100652.63;4917840;29;20028;-71
2021/08/01 04:56:12;;;;;;;27.27;13.60;;;;;;;27.35;100.00;100648.44;4917202;29;20099;-71
2021/08/01 04:58:58;;;;;;;20.88;13.05;;;;;;;27.24;100.00;100645.84;4916590;29;20072;-71
2021/08/01 05:01:46;;;;;;;28.02;12.77;;;;;;;27.66;100.00;100652.84;4917498;29;20028;-71
2021/08/01 05:04:32;;;;;;;24.95;12.40;;;;;;;27.88;100.00;100655.34;4917555;29;20032;-71
2021/08/01 05:07:18;;;;;;;23.38;12.68;;;;;;;27.75;100.00;100665.47;4917217;29;20367;-71
2021/08/01 05:10:04;;;;;;;22.40;12.73;;;;;;;27.73;100.00;100664.78;4917992;29;20031;-71
2021/08/01 05:12:49;;;;;;;18.75;12.48;;;;;;;27.11;100.00;100656.81;4917546;29;20111;-71
2021/08/01 05:15:35;;;;;;;22.92;12.73;;;;;;;27.41;100.00;100656.84;4917781;29;20093;-71
2021/08/01 05:18:21;;;;;;;18.40;11.27;;;;;;;27.41;100.00;100656.00;4916909;29;20294;-71
2021/08/01 05:21:07;;;;;;;21.15;11.82;;;;;;;27.64;100.00;100649.41;4917506;29;20111;-71
2021/08/01 05:23:52;;;;;;;21.35;12.25;;;;;;;27.49;100.00;100659.72;4917427;29;20036;-71
2021/08/01 05:26:38;;;;;;;17.63;11.90;;;;;;;28.03;100.00;100662.03;4919963;29;20026;-71
2021/08/01 05:29:24;;;;;;;23.00;11.85;;;;;;;27.91;100.00;100660.44;4921199;29;20111;-70
2021/08/01 05:32:10;;;;;;;21.50;12.70;;;;;;;27.98;100.00;100663.44;4921008;29;20036;-70
2021/08/01 05:34:56;;;;;;;20.85;12.13;;;;;;;28.31;100.00;100666.63;4921183;29;20066;-70
2021/08/01 05:37:41;;;;;;;23.92;12.07;;;;;;;28.17;100.00;100672.44;4920819;29;20512;-71
2021/08/01 05:40:27;;;;;;;16.83;11.57;;;;;;;28.36;100.00;100675.13;4921421;29;20127;-70
2021/08/01 05:43:13;;;;;;;16.98;10.93;;;;;;;28.45;100.00;100678.88;4920078;29;20028;-71
2021/08/01 05:45:59;;;;;;;18.85;10.48;;;;;;;28.66;100.00;100683.13;4920898;29;20083;-71
2021/08/01 05:48:44;;;;;;;14.65;10.27;;;;;;;28.61;100.00;100684.53;4920165;29;20119;-71
2021/08/01 05:51:30;;;;;;;21.55;11.23;;;;;;;28.59;100.00;100683.81;4920694;29;20024;-71
2021/08/01 05:54:16;;;;;;;18.45;10.52;;;;;;;28.68;100.00;100691.09;4920486;29;20467;-70
2021/08/01 05:57:02;;;;;;;18.50;10.40;;;;;;;28.69;100.00;100684.69;4921125;29;20095;-70
2021/08/01 05:59:47;;;;;;;17.50;10.50;;;;;;;28.46;100.00;100689.50;4921005;29;20021;-71
2021/08/01 06:02:33;;;;;;;18.95;10.45;;;;;;;29.07;100.00;100682.81;4921063;29;20031;-71
2021/08/01 06:05:19;;;;;;;18.38;10.45;;;;;;;28.64;100.00;100690.50;4920903;29;20428;-70
2021/08/01 06:08:05;;;;;;;20.25;10.88;;;;;;;29.04;100.00;100685.81;4920703;29;20088;-71
2021/08/01 06:10:50;;;;;;;17.80;10.15;;;;;;;29.07;100.00;100690.06;4921505;29;20032;-71
2021/08/01 06:13:38;;;;;;;19.13;10.45;;;;;;;28.95;100.00;100686.66;4919850;29;20028;-70
2021/08/01 06:16:23;;;;;;;19.23;11.10;;;;;;;29.21;100.00;100684.22;4920519;29;20036;-71
2021/08/01 06:19:09;;;;;;;17.77;10.60;;;;;;;29.25;100.00;100680.22;4920135;29;20032;-71
2021/08/01 06:21:55;;;;;;;15.13;10.43;;;;;;;29.17;100.00;100678.25;4921021;29;20039;-69
2021/08/01 06:24:41;;;;;;;18.77;10.35;;;;;;;29.42;100.00;100685.72;4921075;29;20028;-70
2021/08/01 06:27:27;;;;;;;19.10;10.35;;;;;;;29.63;100.00;100682.81;4920160;29;20082;-70
2021/08/01 06:30:12;;;;;;;14.75;9.98;;;;;;;29.72;100.00;100680.06;4920374;29;20441;-70
2021/08/01 06:32:58;;;;;;;18.38;9.55;;;;;;;29.55;100.00;100680.84;4920207;29;20115;-71
2021/08/01 06:35:44;;;;;;;17.15;9.95;;;;;;;29.68;100.00;100678.66;4919646;29;20028;-70
2021/08/01 06:38:31;;;;;;;15.77;10.38;;;;;;;29.94;100.00;100668.84;4919911;29;20076;-71
2021/08/01 06:41:16;;;;;;;15.25;10.20;;;;;;;29.76;100.00;100680.63;4920118;29;20402;-71
2021/08/01 06:44:02;;;;;;;15.15;9.63;;;;;;;30.07;100.00;100679.31;4920171;29;20036;-71
2021/08/01 06:46:48;;;;;;;16.52;9.27;;;;;;;30.05;100.00;100682.16;4920095;29;20043;-71
2021/08/01 06:49:34;;;;;;;14.23;9.48;;;;;;;30.31;97.90;100671.50;4919304;29;20469;-71
2021/08/01 06:52:19;;;;;;;14.98;9.73;;;;;;;30.63;96.80;100674.50;4919303;29;20126;-71
2021/08/01 06:55:06;;;;;;;16.05;9.25;;;;;;;30.54;95.68;100676.28;4918914;29;20064;-71
2021/08/01 06:57:52;;;;;;;14.77;9.50;;;;;;;30.51;96.28;100679.31;4918976;29;20076;-71
2021/08/01 07:00:37;;;;;;;15.38;9.55;;;;;;;30.50;95.71;100677.59;4918922;29;20028;-71
2021/08/01 07:03:26;;;;;;;16.95;9.70;;;;;;;30.72;94.02;100681.72;4919953;29;20032;-70
2021/08/01 07:06:12;;;;;;;16.50;8.95;;;;;;;30.66;92.71;100682.31;4918706;29;20020;-70
2021/08/01 07:08:58;;;;;;;15.70;9.55;;;;;;;30.51;94.59;100686.56;4919234;29;20394;-70
2021/08/01 07:11:43;;;;;;;14.20;9.90;;;;;;;30.63;94.63;100686.19;4918659;29;20035;-70
2021/08/01 07:14:29;;;;;;;19.30;9.77;;;;;;;30.65;95.37;100681.47;4919224;29;20119;-70
2021/08/01 07:17:21;;;;;;;20.63;9.93;;;;;;;30.68;95.45;100683.00;4918976;29;20036;-70
2021/08/01 07:20:13;;;;;;;17.17;10.00;;;;;;;30.71;96.43;100677.31;4918767;29;20138;-70
2021/08/01 07:22:59;;;;;;;13.23;9.52;;;;;;;30.67;97.38;100678.59;4919609;29;20111;-70
2021/08/01 07:25:45;;;;;;;16.92;10.27;;;;;;;31.10;95.14;100678.66;4918414;29;20055;-70
2021/08/01 07:28:33;;;;;;;19.73;10.20;;;;;;;31.19;94.90;100677.69;4919256;29;20381;-70
2021/08/01 07:31:19;;;;;;;17.83;9.95;;;;;;;31.04;95.40;100680.13;4919236;29;20071;-70
2021/08/01 07:34:05;;;;;;;19.10;10.15;;;;;;;31.35;95.50;100681.38;4918600;29;20040;-70
2021/08/01 07:36:50;;;;;;;19.77;10.68;;;;;;;31.79;92.75;100682.16;4918608;29;20052;-71
2021/08/01 07:39:36;;;;;;;17.73;10.93;;;;;;;31.72;91.32;100675.66;4918576;29;20349;-70
2021/08/01 07:42:22;;;;;;;14.90;10.93;;;;;;;31.45;92.89;100673.13;4918883;29;20031;-71
2021/08/01 07:48:29;;;;;;;17.70;10.68;;;;;;;32.14;90.28;100686.50;4879120;29;20029;-71
2021/08/01 07:51:15;;;;;;;19.90;10.98;;;;;;;32.10;88.13;100671.59;4918920;29;20024;-70
2021/08/01 07:54:01;;;;;;;18.20;10.82;;;;;;;32.53;85.69;100674.91;4918885;29;20406;-71
2021/08/01 07:56:46;;;;;;;21.80;11.38;;;;;;;32.84;83.81;100672.41;4918203;29;20536;-71
2021/08/01 07:59:32;;;;;;;15.00;11.02;;;;;;;33.06;80.56;100664.41;4918617;29;20039;-71
2021/08/01 08:02:19;;;;;;;18.73;11.98;;;;;;;32.55;82.19;100666.63;4921243;29;20043;-71
2021/08/01 08:05:05;;;;;;;19.75;11.45;;;;;;;32.43;85.21;100665.25;4921594;29;20032;-71
2021/08/01 08:07:51;;;;;;;16.45;11.20;;;;;;;33.28;80.65;100662.84;4918590;29;20042;-70
2021/08/01 08:10:36;;;;;;;16.02;11.88;;;;;;;33.57;76.71;100665.84;4919125;29;20032;-71
2021/08/01 08:13:22;;;;;;;19.38;12.25;;;;;;;33.09;79.76;100674.09;4918209;29;20036;-71
2021/08/01 08:16:08;;;;;;;16.95;10.65;;;;;;;33.62;77.63;100686.06;4918540;29;20032;-71
2021/08/01 08:18:55;;;;;;;18.20;10.95;;;;;;;33.39;81.94;100689.69;4917182;29;20033;-71
2021/08/01 08:21:41;;;;;;;28.50;12.00;;;;;;;33.72;78.61;100685.84;4918116;29;20418;-71
2021/08/01 08:24:27;;;;;;;20.52;12.00;;;;;;;33.94;75.38;100687.81;4917867;29;20059;-71
2021/08/01 08:27:13;;;;;;;18.67;11.82;;;;;;;34.25;71.35;100691.41;4918469;29;20028;-71
2021/08/01 08:29:59;;;;;;;18.13;11.48;;;;;;;34.33;71.84;100692.25;4918673;29;20092;-71
2021/08/01 08:32:45;;;;;;;15.43;11.63;;;;;;;34.35;72.09;100687.44;4920128;29;20036;-71
2021/08/01 08:35:30;;;;;;;17.33;12.57;;;;;;;34.58;69.94;100685.59;4917920;29;20031;-71
2021/08/01 08:38:16;;;;;;;16.42;12.48;;;;;;;33.98;70.98;100679.13;4918264;29;20028;-71
2021/08/01 08:41:03;;;;;;;32.50;13.52;;;;;;;34.96;67.03;100683.78;4918769;29;20028;-71
2021/08/01 08:43:48;;;;;;;19.00;12.30;;;;;;;34.73;68.32;100683.78;4917752;29;20377;-71
2021/08/01 08:46:36;;;;;;;28.80;12.60;;;;;;;35.09;66.51;100678.56;4918791;29;20039;-71
2021/08/01 08:49:22;;;;;;;20.42;15.40;;;;;;;35.63;63.64;100682.75;4916104;29;20036;-71
2021/08/01 08:52:08;;;;;;;20.30;16.00;;;;;;;35.31;63.42;100688.56;4917214;29;20465;-71
2021/08/01 08:54:59;;;;;;;22.27;14.70;;;;;;;35.14;65.35;100687.00;4917619;29;20036;-71
2021/08/01 08:57:49;;;;;;;18.83;12.65;;;;;;;35.30;63.97;100683.31;4917031;29;20044;-72
2021/08/01 09:00:35;;;;;;;18.70;11.55;;;;;;;35.57;63.74;100674.50;4919474;29;20449;-70
2021/08/01 09:03:21;;;;;;;18.75;11.95;;;;;;;35.93;62.50;100678.16;4922434;29;20028;-71
2021/08/01 09:06:07;;;;;;;20.77;12.32;;;;;;;36.22;60.73;100683.56;4920761;29;20119;-71
2021/08/01 09:08:53;;;;;;;19.83;12.13;;;;;;;35.76;63.26;100676.69;4921889;29;20028;-70
2021/08/01 09:11:38;;;;;;;19.95;12.27;;;;;;;34.79;66.49;100676.75;4921626;29;20067;-70
2021/08/01 09:14:24;;;;;;;14.52;11.30;;;;;;;36.40;61.30;100676.66;4921481;29;20020;-71
2021/08/01 09:17:10;;;;;;;21.77;13.93;;;;;;;36.72;57.71;100678.91;4921271;29;20442;-70
2021/08/01 09:20:11;;;;;;;27.02;19.90;;;;;;;36.10;59.61;100672.31;4921272;29;20035;-71
2021/08/01 09:23:00;;;;;;;20.00;13.90;;;;;;;36.38;58.12;100664.25;4921237;29;20035;-71
2021/08/01 09:25:56;;;;;;;38.50;31.23;;;;;;;35.48;60.45;100657.41;4921095;29;20028;-71
2021/08/01 09:28:59;;;;;;;28.27;22.63;;;;;;;36.57;59.07;100660.88;4921727;29;20027;-71
2021/08/01 09:31:55;;;;;;;20.38;14.93;;;;;;;36.63;58.88;100655.47;4920890;29;20036;-71
2021/08/01 09:34:47;;;;;;;27.98;18.55;;;;;;;36.81;56.62;100652.31;4921097;29;20047;-70
2021/08/01 09:37:34;;;;;;;24.65;17.75;;;;;;;36.45;57.45;100654.25;4920464;29;20071;-70
2021/08/01 09:40:20;;;;;;;25.30;17.80;;;;;;;36.40;58.32;100654.81;4920834;29;20035;-71
2021/08/01 09:43:15;;;;;;;24.27;14.80;;;;;;;35.94;59.73;100658.88;4920446;29;20135;-71
2021/08/01 09:46:00;;;;;;;25.73;16.95;;;;;;;36.11;60.07;100643.16;4920784;29;20056;-70
2021/08/01 09:49:06;;;;;;;24.27;15.88;;;;;;;36.40;56.01;100652.09;4920408;29;20056;-71
2021/08/01 09:51:58;;;;;;;22.58;15.48;;;;;;;35.44;60.53;100637.00;4921003;29;20036;-71
2021/08/01 09:54:48;;;;;;;17.00;15.15;;;;;;;36.41;58.33;100642.88;4919196;29;20036;-71
2021/08/01 09:57:34;;;;;;;18.95;14.25;;;;;;;36.87;56.52;100646.03;4919773;29;20059;-71
2021/08/01 10:00:23;;;;;;;24.77;20.25;;;;;;;36.88;55.60;100647.75;4920439;29;20035;-71
2021/08/01 10:03:37;;;;;;;24.25;16.55;;;;;;;36.56;55.39;100648.28;4919949;29;20449;-71
2021/08/01 10:06:23;;;;;;;29.85;19.70;;;;;;;35.89;57.21;100639.53;4920139;29;20020;-71
2021/08/01 10:09:24;;;;;;;25.20;17.80;;;;;;;36.18;57.88;100635.84;4919569;29;20040;-71
2021/08/01 10:12:11;;;;;;;22.02;16.23;;;;;;;36.44;58.36;100628.00;4918684;29;20036;-71
2021/08/01 10:14:57;;;;;;;20.20;14.90;;;;;;;36.73;55.96;100622.41;4920767;29;20028;-71
2021/08/01 10:17:43;;;;;;;25.20;16.65;;;;;;;36.13;56.56;100620.09;4920386;29;20040;-71
2021/08/01 10:20:30;;;;;;;20.20;16.15;;;;;;;36.47;56.47;100622.97;4920054;29;20032;-71
2021/08/01 10:23:17;;;;;;;24.17;15.38;;;;;;;36.63;56.04;100621.84;4919662;29;20035;-71
2021/08/01 10:26:06;;;;;;;17.90;14.48;;;;;;;36.46;56.17;100620.44;4919914;29;20370;-71
2021/08/01 10:28:55;;;;;;;19.80;15.07;;;;;;;36.88;53.65;100610.34;4920528;29;20380;-71
2021/08/01 10:31:50;;;;;;;20.45;15.35;;;;;;;36.81;55.68;100611.34;4919806;29;20038;-71
2021/08/01 10:34:40;;;;;;;22.48;15.32;;;;;;;36.65;54.33;100603.41;4919950;29;20024;-71
2021/08/01 10:37:39;;;;;;;18.25;14.32;;;;;;;36.95;54.27;100605.78;4919082;29;20465;-71
2021/08/01 10:40:26;;;;;;;20.65;14.85;;;;;;;36.99;53.01;100604.34;4920107;29;20098;-70
2021/08/01 10:43:16;;;;;;;20.95;14.55;;;;;;;36.43;53.91;100599.84;4919802;29;20390;-71
2021/08/01 10:46:03;;;;;;;21.13;16.00;;;;;;;37.20;54.30;100593.34;4919903;29;20047;-70
2021/08/01 10:48:48;;;;;;;17.08;14.73;;;;;;;36.78;54.26;100596.19;4919697;29;20040;-71
2021/08/01 10:51:35;;;;;;;22.10;14.77;;;;;;;36.91;54.47;100595.44;4919609;29;20035;-71
2021/08/01 10:54:21;;;;;;;21.30;14.43;;;;;;;37.47;53.19;100586.13;4918983;29;20346;-71
2021/08/01 10:57:18;;;;;;;20.27;14.40;;;;;;;37.49;52.35;100582.16;4919206;29;20056;-71
2021/08/01 11:00:06;;;;;;;16.98;13.88;;;;;;;37.39;51.68;100578.97;4919774;29;20028;-71
2021/08/01 11:03:16;;;;;;;21.80;14.05;;;;;;;36.75;52.86;100588.38;4918717;29;20024;-71
2021/08/01 11:06:03;;;;;;;17.50;13.98;;;;;;;36.82;53.39;100581.09;4918807;29;20032;-71
2021/08/01 11:09:12;;;;;;;20.05;14.70;;;;;;;36.69;53.26;100582.88;4918701;29;20030;-71
2021/08/01 11:12:19;;;;;;;20.33;14.85;;;;;;;37.54;50.94;100581.56;4918482;29;20361;-71
2021/08/01 11:15:07;;;;;;;18.45;15.25;;;;;;;37.29;50.06;100570.28;4918498;29;20035;-71
2021/08/01 11:17:54;;;;;;;16.45;14.00;;;;;;;37.56;50.02;100569.34;4918586;29;20032;-71
2021/08/01 11:20:43;;;;;;;21.33;14.15;;;;;;;37.94;49.45;100577.94;4918406;29;20047;-71
2021/08/01 11:23:44;;;;;;;18.52;14.52;;;;;;;37.96;48.71;100579.41;4917852;29;20095;-71
2021/08/01 11:26:30;;;;;;;22.55;14.50;;;;;;;37.59;48.82;100566.25;4919328;29;20028;-72
2021/08/01 11:29:15;;;;;;;20.58;15.10;;;;;;;38.19;46.85;100571.72;4918845;29;20020;-72
2021/08/01 11:32:08;;;;;;;19.42;14.52;;;;;;;37.99;46.44;100559.00;4918830;29;20032;-72
2021/08/01 11:35:14;;;;;;;20.40;14.38;;;;;;;38.61;44.86;100563.13;4918584;29;20032;-71
2021/08/01 11:38:07;;;;;;;17.13;14.10;;;;;;;38.33;43.57;100548.78;4918606;29;20028;-71
2021/08/01 11:40:54;;;;;;;24.13;13.82;;;;;;;38.33;43.79;100545.22;4917691;29;20032;-71
2021/08/01 11:43:56;;;;;;;16.38;13.63;;;;;;;38.77;44.06;100539.97;4918315;29;20028;-71
2021/08/01 11:46:45;;;;;;;20.25;13.90;;;;;;;38.64;44.46;100548.16;4918236;29;20032;-71
2021/08/01 11:49:34;;;;;;;18.23;14.20;;;;;;;38.54;43.25;100540.38;4919637;29;20461;-71
2021/08/01 11:52:33;;;;;;;21.13;13.88;;;;;;;39.09;42.59;100532.75;4919509;29;20480;-71
2021/08/01 11:55:20;;;;;;;16.83;13.55;;;;;;;39.72;41.97;100540.94;4918336;29;20070;-71
2021/08/01 11:58:06;;;;;;;17.35;13.63;;;;;;;39.44;41.55;100534.16;4918438;29;20048;-72
2021/08/01 12:00:52;;;;;;;19.00;13.50;;;;;;;39.58;41.61;100524.78;4918386;29;20055;-71
2021/08/01 12:03:40;;;;;;;17.83;13.00;;;;;;;39.66;40.10;100519.03;4918075;29;20031;-71
2021/08/01 12:06:43;;;;;;;15.30;13.60;;;;;;;39.96;39.88;100522.88;4917171;29;20027;-71
2021/08/01 12:09:35;;;;;;;19.67;13.85;;;;;;;40.06;39.42;100528.75;4918021;29;20377;-71
2021/08/01 12:12:28;;;;;;;14.57;13.07;;;;;;;39.37;38.95;100520.44;4918096;29;20036;-71
2021/08/01 12:15:14;;;;;;;15.38;13.70;;;;;;;39.72;38.27;100519.00;4918125;29;20036;-71
2021/08/01 12:18:02;;;;;;;17.30;13.05;;;;;;;39.52;37.58;100506.47;4919190;29;20032;-71
2021/08/01 12:20:48;;;;;;;16.55;12.82;;;;;;;39.92;37.33;100503.28;4919299;29;20775;-71
2021/08/01 12:23:38;;;;;;;18.83;14.10;;;;;;;39.38;37.95;100500.19;4919734;29;20032;-71
2021/08/01 12:26:38;;;;;;;18.02;14.07;;;;;;;39.00;39.29;100496.50;4917171;29;20043;-71
2021/08/01 12:29:44;;;;;;;18.33;13.57;;;;;;;39.25;39.00;100491.16;4918051;29;20430;-71
2021/08/01 12:32:32;;;;;;;15.40;13.25;;;;;;;39.32;39.04;100494.72;4918352;29;20080;-72
2021/08/01 12:35:23;;;;;;;16.98;13.65;;;;;;;39.00;38.94;100498.41;4917412;29;20118;-70
2021/08/01 12:38:10;;;;;;;15.60;13.93;;;;;;;38.45;39.72;100499.72;4918091;29;20074;-70
2021/08/01 12:40:58;;;;;;;16.60;13.38;;;;;;;39.04;39.01;100491.44;4917692;29;20039;-70
2021/08/01 12:43:43;;;;;;;15.43;13.25;;;;;;;38.80;39.54;100482.81;4917711;29;20025;-70
2021/08/01 12:46:29;;;;;;;16.73;13.30;;;;;;;39.19;38.13;100489.25;4916905;29;20095;-70